sensor_id;sensor_type;location;lat;lon;timestamp;P1;durP1;ratioP1;P2;durP2;ratioP2
34900;SDS011;21112;51.976;5.660;2024-01-30T00:02:16;14.35;;;5.70;;
34900;SDS011;21112;51.976;5.660;2024-01-30T00:04:43;12.23;;;5.47;;
34900;SDS011;21112;51.976;5.660;2024-01-30T00:07:09;13.77;;;6.03;;
34900;SDS011;21112;51.976;5.660;2024-01-30T00:09:37;11.07;;;5.70;;
34900;SDS011;21112;51.976;5.660;2024-01-30T00:12:06;12.32;;;5.88;;
34900;SDS011;21112;51.976;5.660;2024-01-30T00:17:00;10.77;;;4.00;;
34900;SDS011;21112;51.976;5.660;2024-01-30T00:19:26;12.35;;;5.30;;
34900;SDS011;21112;51.976;5.660;2024-01-30T00:21:56;15.40;;;4.97;;
34900;SDS011;21112;51.976;5.660;2024-01-30T00:24:24;13.02;;;5.47;;
34900;SDS011;21112;51.976;5.660;2024-01-30T00:26:52;11.30;;;5.22;;
34900;SDS011;21112;51.976;5.660;2024-01-30T00:29:20;14.85;;;5.40;;
34900;SDS011;21112;51.976;5.660;2024-01-30T00:31:48;10.82;;;4.35;;
34900;SDS011;21112;51.976;5.660;2024-01-30T00:34:17;12.70;;;4.68;;
34900;SDS011;21112;51.976;5.660;2024-01-30T00:36:44;11.68;;;5.20;;
34900;SDS011;21112;51.976;5.660;2024-01-30T00:39:11;17.48;;;5.43;;
34900;SDS011;21112;51.976;5.660;2024-01-30T00:41:38;12.90;;;5.05;;
34900;SDS011;21112;51.976;5.660;2024-01-30T00:44:04;13.18;;;5.13;;
34900;SDS011;21112;51.976;5.660;2024-01-30T00:46:33;15.05;;;5.30;;
34900;SDS011;21112;51.976;5.660;2024-01-30T00:49:02;14.63;;;5.03;;
34900;SDS011;21112;51.976;5.660;2024-01-30T00:51:28;12.27;;;5.32;;
34900;SDS011;21112;51.976;5.660;2024-01-30T00:53:55;8.95;;;4.50;;
34900;SDS011;21112;51.976;5.660;2024-01-30T00:56:22;11.98;;;4.82;;
34900;SDS011;21112;51.976;5.660;2024-01-30T00:58:50;10.32;;;4.82;;
34900;SDS011;21112;51.976;5.660;2024-01-30T01:01:17;9.23;;;4.55;;
34900;SDS011;21112;51.976;5.660;2024-01-30T01:03:45;10.18;;;4.85;;
34900;SDS011;21112;51.976;5.660;2024-01-30T01:06:15;10.93;;;4.90;;
34900;SDS011;21112;51.976;5.660;2024-01-30T01:08:42;10.75;;;4.78;;
34900;SDS011;21112;51.976;5.660;2024-01-30T01:11:09;10.05;;;4.80;;
34900;SDS011;21112;51.976;5.660;2024-01-30T01:13:35;12.82;;;4.45;;
34900;SDS011;21112;51.976;5.660;2024-01-30T01:16:02;10.30;;;4.57;;
34900;SDS011;21112;51.976;5.660;2024-01-30T01:18:30;12.05;;;4.90;;
34900;SDS011;21112;51.976;5.660;2024-01-30T01:20:58;10.18;;;4.57;;
34900;SDS011;21112;51.976;5.660;2024-01-30T01:25:52;8.60;;;3.85;;
34900;SDS011;21112;51.976;5.660;2024-01-30T01:28:19;11.93;;;4.10;;
34900;SDS011;21112;51.976;5.660;2024-01-30T01:30:46;10.70;;;4.82;;
34900;SDS011;21112;51.976;5.660;2024-01-30T01:33:13;10.82;;;4.60;;
34900;SDS011;21112;51.976;5.660;2024-01-30T01:35:40;13.02;;;4.55;;
34900;SDS011;21112;51.976;5.660;2024-01-30T01:38:08;9.88;;;4.80;;
34900;SDS011;21112;51.976;5.660;2024-01-30T01:40:37;11.32;;;4.65;;
34900;SDS011;21112;51.976;5.660;2024-01-30T01:43:04;12.30;;;4.90;;
34900;SDS011;21112;51.976;5.660;2024-01-30T01:45:32;11.38;;;4.82;;
34900;SDS011;21112;51.976;5.660;2024-01-30T01:47:59;9.77;;;4.45;;
34900;SDS011;21112;51.976;5.660;2024-01-30T01:50:27;9.77;;;4.68;;
34900;SDS011;21112;51.976;5.660;2024-01-30T01:55:23;15.05;;;4.50;;
34900;SDS011;21112;51.976;5.660;2024-01-30T01:57:53;9.90;;;4.57;;
34900;SDS011;21112;51.976;5.660;2024-01-30T02:00:20;11.20;;;4.88;;
34900;SDS011;21112;51.976;5.660;2024-01-30T02:02:47;9.85;;;4.60;;
34900;SDS011;21112;51.976;5.660;2024-01-30T02:05:15;9.30;;;4.13;;
34900;SDS011;21112;51.976;5.660;2024-01-30T02:07:43;11.43;;;4.90;;
34900;SDS011;21112;51.976;5.660;2024-01-30T02:10:15;15.55;;;4.95;;
34900;SDS011;21112;51.976;5.660;2024-01-30T02:12:43;8.55;;;3.88;;
34900;SDS011;21112;51.976;5.660;2024-01-30T02:15:12;14.23;;;5.15;;
34900;SDS011;21112;51.976;5.660;2024-01-30T02:17:40;15.73;;;4.70;;
34900;SDS011;21112;51.976;5.660;2024-01-30T02:20:07;11.25;;;4.88;;
34900;SDS011;21112;51.976;5.660;2024-01-30T02:22:36;10.43;;;4.50;;
34900;SDS011;21112;51.976;5.660;2024-01-30T02:25:04;9.43;;;4.45;;
34900;SDS011;21112;51.976;5.660;2024-01-30T02:27:31;13.32;;;5.15;;
34900;SDS011;21112;51.976;5.660;2024-01-30T02:29:57;10.73;;;4.60;;
34900;SDS011;21112;51.976;5.660;2024-01-30T02:32:25;9.57;;;4.73;;
34900;SDS011;21112;51.976;5.660;2024-01-30T02:34:52;12.38;;;4.75;;
34900;SDS011;21112;51.976;5.660;2024-01-30T02:37:19;11.15;;;4.63;;
34900;SDS011;21112;51.976;5.660;2024-01-30T02:39:47;11.90;;;4.90;;
34900;SDS011;21112;51.976;5.660;2024-01-30T02:42:16;13.43;;;5.50;;
34900;SDS011;21112;51.976;5.660;2024-01-30T02:44:43;14.43;;;5.43;;
34900;SDS011;21112;51.976;5.660;2024-01-30T02:47:10;12.52;;;4.43;;
34900;SDS011;21112;51.976;5.660;2024-01-30T02:49:37;9.75;;;4.70;;
34900;SDS011;21112;51.976;5.660;2024-01-30T02:52:03;15.60;;;5.07;;
34900;SDS011;21112;51.976;5.660;2024-01-30T02:54:30;12.13;;;5.03;;
34900;SDS011;21112;51.976;5.660;2024-01-30T02:56:58;11.48;;;4.60;;
34900;SDS011;21112;51.976;5.660;2024-01-30T02:59:25;11.15;;;4.82;;
34900;SDS011;21112;51.976;5.660;2024-01-30T03:01:54;11.82;;;5.53;;
34900;SDS011;21112;51.976;5.660;2024-01-30T03:06:47;11.43;;;4.03;;
34900;SDS011;21112;51.976;5.660;2024-01-30T03:09:15;11.02;;;4.55;;
34900;SDS011;21112;51.976;5.660;2024-01-30T03:11:42;10.50;;;4.38;;
34900;SDS011;21112;51.976;5.660;2024-01-30T03:14:11;13.57;;;4.80;;
34900;SDS011;21112;51.976;5.660;2024-01-30T03:16:38;11.57;;;4.63;;
34900;SDS011;21112;51.976;5.660;2024-01-30T03:19:05;10.48;;;4.65;;
34900;SDS011;21112;51.976;5.660;2024-01-30T03:21:34;10.15;;;4.70;;
34900;SDS011;21112;51.976;5.660;2024-01-30T03:24:01;13.70;;;5.50;;
34900;SDS011;21112;51.976;5.660;2024-01-30T03:26:27;9.57;;;4.53;;
34900;SDS011;21112;51.976;5.660;2024-01-30T03:28:54;9.60;;;3.67;;
34900;SDS011;21112;51.976;5.660;2024-01-30T03:31:22;10.10;;;5.05;;
34900;SDS011;21112;51.976;5.660;2024-01-30T03:33:52;9.88;;;4.57;;
34900;SDS011;21112;51.976;5.660;2024-01-30T03:36:19;10.45;;;4.90;;
34900;SDS011;21112;51.976;5.660;2024-01-30T03:38:46;10.88;;;4.45;;
34900;SDS011;21112;51.976;5.660;2024-01-30T03:41:13;11.85;;;4.85;;
34900;SDS011;21112;51.976;5.660;2024-01-30T03:43:40;11.55;;;4.63;;
34900;SDS011;21112;51.976;5.660;2024-01-30T03:46:07;11.07;;;5.13;;
34900;SDS011;21112;51.976;5.660;2024-01-30T03:48:35;8.77;;;4.60;;
34900;SDS011;21112;51.976;5.660;2024-01-30T03:51:02;11.80;;;4.40;;
34900;SDS011;21112;51.976;5.660;2024-01-30T03:53:29;11.20;;;5.18;;
34900;SDS011;21112;51.976;5.660;2024-01-30T03:55:56;12.73;;;4.72;;
34900;SDS011;21112;51.976;5.660;2024-01-30T03:58:23;8.88;;;4.15;;
34900;SDS011;21112;51.976;5.660;2024-01-30T04:00:49;10.50;;;4.68;;
34900;SDS011;21112;51.976;5.660;2024-01-30T04:03:16;12.43;;;5.07;;
34900;SDS011;21112;51.976;5.660;2024-01-30T04:05:47;9.60;;;4.30;;
34900;SDS011;21112;51.976;5.660;2024-01-30T04:08:17;10.70;;;4.85;;
34900;SDS011;21112;51.976;5.660;2024-01-30T04:10:44;12.50;;;5.55;;
34900;SDS011;21112;51.976;5.660;2024-01-30T04:13:11;11.73;;;4.65;;
34900;SDS011;21112;51.976;5.660;2024-01-30T04:15:38;11.60;;;4.90;;
34900;SDS011;21112;51.976;5.660;2024-01-30T04:18:08;14.93;;;5.28;;
34900;SDS011;21112;51.976;5.660;2024-01-30T04:20:35;8.77;;;4.32;;
34900;SDS011;21112;51.976;5.660;2024-01-30T04:23:03;9.93;;;4.70;;
34900;SDS011;21112;51.976;5.660;2024-01-30T04:27:57;12.63;;;4.35;;
34900;SDS011;21112;51.976;5.660;2024-01-30T04:30:26;13.50;;;5.05;;
34900;SDS011;21112;51.976;5.660;2024-01-30T04:32:53;11.95;;;4.80;;
34900;SDS011;21112;51.976;5.660;2024-01-30T04:35:19;10.27;;;4.60;;
34900;SDS011;21112;51.976;5.660;2024-01-30T04:37:50;9.25;;;4.57;;
34900;SDS011;21112;51.976;5.660;2024-01-30T04:40:19;9.40;;;4.50;;
34900;SDS011;21112;51.976;5.660;2024-01-30T04:42:48;11.32;;;4.90;;
34900;SDS011;21112;51.976;5.660;2024-01-30T04:45:15;13.85;;;4.43;;
34900;SDS011;21112;51.976;5.660;2024-01-30T04:47:42;10.70;;;4.88;;
34900;SDS011;21112;51.976;5.660;2024-01-30T04:50:11;9.23;;;4.20;;
34900;SDS011;21112;51.976;5.660;2024-01-30T04:52:37;12.52;;;4.85;;
34900;SDS011;21112;51.976;5.660;2024-01-30T04:55:05;10.45;;;4.75;;
34900;SDS011;21112;51.976;5.660;2024-01-30T04:57:43;14.35;;;5.55;;
34900;SDS011;21112;51.976;5.660;2024-01-30T05:00:10;17.45;;;4.50;;
34900;SDS011;21112;51.976;5.660;2024-01-30T05:02:37;8.27;;;3.97;;
34900;SDS011;21112;51.976;5.660;2024-01-30T05:05:04;10.60;;;4.80;;
34900;SDS011;21112;51.976;5.660;2024-01-30T05:07:31;14.38;;;5.15;;
34900;SDS011;21112;51.976;5.660;2024-01-30T05:09:58;10.10;;;4.72;;
34900;SDS011;21112;51.976;5.660;2024-01-30T05:12:25;11.75;;;4.60;;
34900;SDS011;21112;51.976;5.660;2024-01-30T05:14:54;14.40;;;6.82;;
34900;SDS011;21112;51.976;5.660;2024-01-30T05:17:20;13.77;;;6.50;;
34900;SDS011;21112;51.976;5.660;2024-01-30T05:19:47;14.10;;;6.18;;
34900;SDS011;21112;51.976;5.660;2024-01-30T05:22:14;10.70;;;4.97;;
34900;SDS011;21112;51.976;5.660;2024-01-30T05:24:43;12.20;;;5.28;;
34900;SDS011;21112;51.976;5.660;2024-01-30T05:27:09;12.95;;;4.65;;
34900;SDS011;21112;51.976;5.660;2024-01-30T05:32:07;10.43;;;5.10;;
34900;SDS011;21112;51.976;5.660;2024-01-30T05:34:35;14.93;;;5.47;;
34900;SDS011;21112;51.976;5.660;2024-01-30T05:37:05;17.08;;;6.55;;
34900;SDS011;21112;51.976;5.660;2024-01-30T05:39:32;17.15;;;7.78;;
34900;SDS011;21112;51.976;5.660;2024-01-30T05:41:58;12.32;;;6.40;;
34900;SDS011;21112;51.976;5.660;2024-01-30T05:44:25;11.15;;;5.03;;
34900;SDS011;21112;51.976;5.660;2024-01-30T05:46:52;10.25;;;4.38;;
34900;SDS011;21112;51.976;5.660;2024-01-30T05:49:22;9.43;;;4.38;;
34900;SDS011;21112;51.976;5.660;2024-01-30T05:51:51;10.30;;;4.55;;
34900;SDS011;21112;51.976;5.660;2024-01-30T05:54:20;11.27;;;4.38;;
34900;SDS011;21112;51.976;5.660;2024-01-30T05:56:47;10.32;;;4.30;;
34900;SDS011;21112;51.976;5.660;2024-01-30T05:59:16;10.27;;;4.65;;
34900;SDS011;21112;51.976;5.660;2024-01-30T06:01:45;10.50;;;4.38;;
34900;SDS011;21112;51.976;5.660;2024-01-30T06:04:15;8.05;;;4.15;;
34900;SDS011;21112;51.976;5.660;2024-01-30T06:06:45;10.38;;;5.05;;
34900;SDS011;21112;51.976;5.660;2024-01-30T06:09:12;8.70;;;3.72;;
34900;SDS011;21112;51.976;5.660;2024-01-30T06:11:39;11.93;;;4.45;;
34900;SDS011;21112;51.976;5.660;2024-01-30T06:14:06;11.70;;;4.53;;
34900;SDS011;21112;51.976;5.660;2024-01-30T06:16:33;9.98;;;4.45;;
34900;SDS011;21112;51.976;5.660;2024-01-30T06:18:59;14.13;;;5.10;;
34900;SDS011;21112;51.976;5.660;2024-01-30T06:21:26;11.23;;;4.78;;
34900;SDS011;21112;51.976;5.660;2024-01-30T06:23:54;26.08;;;9.57;;
34900;SDS011;21112;51.976;5.660;2024-01-30T06:26:23;15.15;;;6.43;;
34900;SDS011;21112;51.976;5.660;2024-01-30T06:31:16;11.35;;;5.28;;
34900;SDS011;21112;51.976;5.660;2024-01-30T06:33:48;13.52;;;5.60;;
34900;SDS011;21112;51.976;5.660;2024-01-30T06:36:16;11.13;;;4.25;;
34900;SDS011;21112;51.976;5.660;2024-01-30T06:38:46;11.25;;;4.38;;
34900;SDS011;21112;51.976;5.660;2024-01-30T06:41:14;10.75;;;4.63;;
34900;SDS011;21112;51.976;5.660;2024-01-30T06:43:41;10.38;;;4.10;;
34900;SDS011;21112;51.976;5.660;2024-01-30T06:46:10;11.70;;;4.50;;
34900;SDS011;21112;51.976;5.660;2024-01-30T06:48:36;9.82;;;4.05;;
34900;SDS011;21112;51.976;5.660;2024-01-30T06:53:31;8.18;;;3.83;;
34900;SDS011;21112;51.976;5.660;2024-01-30T06:55:58;11.70;;;4.65;;
34900;SDS011;21112;51.976;5.660;2024-01-30T06:58:26;8.75;;;4.00;;
34900;SDS011;21112;51.976;5.660;2024-01-30T07:00:54;8.98;;;3.70;;
34900;SDS011;21112;51.976;5.660;2024-01-30T07:03:20;11.63;;;4.55;;
34900;SDS011;21112;51.976;5.660;2024-01-30T07:05:47;13.10;;;4.25;;
34900;SDS011;21112;51.976;5.660;2024-01-30T07:08:16;9.63;;;4.32;;
34900;SDS011;21112;51.976;5.660;2024-01-30T07:10:43;10.82;;;3.90;;
34900;SDS011;21112;51.976;5.660;2024-01-30T07:13:10;7.72;;;3.92;;
34900;SDS011;21112;51.976;5.660;2024-01-30T07:18:30;8.30;;;4.05;;
34900;SDS011;21112;51.976;5.660;2024-01-30T07:20:57;8.32;;;4.15;;
34900;SDS011;21112;51.976;5.660;2024-01-30T07:23:23;10.02;;;4.60;;
34900;SDS011;21112;51.976;5.660;2024-01-30T07:25:50;9.95;;;4.53;;
34900;SDS011;21112;51.976;5.660;2024-01-30T07:28:17;11.05;;;4.18;;
34900;SDS011;21112;51.976;5.660;2024-01-30T07:30:44;11.68;;;4.72;;
34900;SDS011;21112;51.976;5.660;2024-01-30T07:33:14;14.82;;;4.38;;
34900;SDS011;21112;51.976;5.660;2024-01-30T07:35:41;12.15;;;4.28;;
34900;SDS011;21112;51.976;5.660;2024-01-30T07:38:08;12.27;;;4.10;;
34900;SDS011;21112;51.976;5.660;2024-01-30T07:40:35;11.25;;;4.40;;
34900;SDS011;21112;51.976;5.660;2024-01-30T07:43:02;10.23;;;4.50;;
34900;SDS011;21112;51.976;5.660;2024-01-30T07:45:29;11.63;;;4.60;;
34900;SDS011;21112;51.976;5.660;2024-01-30T07:47:58;10.68;;;4.47;;
34900;SDS011;21112;51.976;5.660;2024-01-30T07:50:27;11.13;;;4.85;;
34900;SDS011;21112;51.976;5.660;2024-01-30T07:52:55;9.05;;;4.10;;
34900;SDS011;21112;51.976;5.660;2024-01-30T07:55:22;10.32;;;4.50;;
34900;SDS011;21112;51.976;5.660;2024-01-30T07:57:52;11.10;;;4.63;;
34900;SDS011;21112;51.976;5.660;2024-01-30T08:00:20;8.90;;;4.20;;
34900;SDS011;21112;51.976;5.660;2024-01-30T08:02:53;13.10;;;4.63;;
34900;SDS011;21112;51.976;5.660;2024-01-30T08:05:20;10.02;;;4.82;;
34900;SDS011;21112;51.976;5.660;2024-01-30T08:07:52;12.80;;;4.67;;
34900;SDS011;21112;51.976;5.660;2024-01-30T08:10:19;10.75;;;4.50;;
34900;SDS011;21112;51.976;5.660;2024-01-30T08:12:49;10.32;;;4.57;;
34900;SDS011;21112;51.976;5.660;2024-01-30T08:15:16;10.13;;;4.38;;
34900;SDS011;21112;51.976;5.660;2024-01-30T08:17:47;12.30;;;4.95;;
34900;SDS011;21112;51.976;5.660;2024-01-30T08:20:13;8.57;;;4.28;;
34900;SDS011;21112;51.976;5.660;2024-01-30T08:22:41;12.18;;;4.78;;
34900;SDS011;21112;51.976;5.660;2024-01-30T08:25:09;9.23;;;4.40;;
34900;SDS011;21112;51.976;5.660;2024-01-30T08:27:36;11.77;;;4.47;;
34900;SDS011;21112;51.976;5.660;2024-01-30T08:30:06;9.90;;;4.30;;
34900;SDS011;21112;51.976;5.660;2024-01-30T08:32:33;10.37;;;4.43;;
34900;SDS011;21112;51.976;5.660;2024-01-30T08:35:00;9.13;;;3.80;;
34900;SDS011;21112;51.976;5.660;2024-01-30T08:37:31;12.48;;;4.25;;
34900;SDS011;21112;51.976;5.660;2024-01-30T08:39:58;12.55;;;4.18;;
34900;SDS011;21112;51.976;5.660;2024-01-30T08:42:28;12.38;;;4.63;;
34900;SDS011;21112;51.976;5.660;2024-01-30T08:44:55;17.40;;;4.47;;
34900;SDS011;21112;51.976;5.660;2024-01-30T08:47:22;8.90;;;4.22;;
34900;SDS011;21112;51.976;5.660;2024-01-30T08:49:50;11.48;;;3.55;;
34900;SDS011;21112;51.976;5.660;2024-01-30T08:52:17;14.05;;;4.95;;
34900;SDS011;21112;51.976;5.660;2024-01-30T08:54:44;10.82;;;4.55;;
34900;SDS011;21112;51.976;5.660;2024-01-30T08:57:11;11.43;;;3.70;;
34900;SDS011;21112;51.976;5.660;2024-01-30T08:59:45;13.10;;;4.03;;
34900;SDS011;21112;51.976;5.660;2024-01-30T09:02:18;10.10;;;3.78;;
34900;SDS011;21112;51.976;5.660;2024-01-30T09:04:45;16.30;;;4.40;;
34900;SDS011;21112;51.976;5.660;2024-01-30T09:07:12;10.43;;;3.78;;
34900;SDS011;21112;51.976;5.660;2024-01-30T09:09:39;12.25;;;4.05;;
34900;SDS011;21112;51.976;5.660;2024-01-30T09:12:16;8.82;;;4.28;;
34900;SDS011;21112;51.976;5.660;2024-01-30T09:14:44;10.93;;;4.13;;
34900;SDS011;21112;51.976;5.660;2024-01-30T09:19:38;9.93;;;3.80;;
34900;SDS011;21112;51.976;5.660;2024-01-30T09:22:09;15.07;;;4.07;;
34900;SDS011;21112;51.976;5.660;2024-01-30T09:24:35;9.07;;;4.18;;
34900;SDS011;21112;51.976;5.660;2024-01-30T09:27:04;8.48;;;3.78;;
34900;SDS011;21112;51.976;5.660;2024-01-30T09:29:31;10.35;;;3.75;;
34900;SDS011;21112;51.976;5.660;2024-01-30T09:32:05;9.60;;;4.25;;
34900;SDS011;21112;51.976;5.660;2024-01-30T09:34:34;11.48;;;4.45;;
34900;SDS011;21112;51.976;5.660;2024-01-30T09:37:01;13.93;;;4.25;;
34900;SDS011;21112;51.976;5.660;2024-01-30T09:39:27;9.70;;;4.07;;
34900;SDS011;21112;51.976;5.660;2024-01-30T09:41:55;9.20;;;4.20;;
34900;SDS011;21112;51.976;5.660;2024-01-30T09:44:28;12.68;;;4.43;;
34900;SDS011;21112;51.976;5.660;2024-01-30T09:46:55;15.32;;;4.30;;
34900;SDS011;21112;51.976;5.660;2024-01-30T09:49:29;9.00;;;3.58;;
34900;SDS011;21112;51.976;5.660;2024-01-30T09:51:58;9.27;;;4.30;;
34900;SDS011;21112;51.976;5.660;2024-01-30T09:56:55;10.70;;;3.60;;
34900;SDS011;21112;51.976;5.660;2024-01-30T09:59:22;10.05;;;4.18;;
34900;SDS011;21112;51.976;5.660;2024-01-30T10:01:50;13.10;;;4.35;;
34900;SDS011;21112;51.976;5.660;2024-01-30T10:04:17;13.48;;;4.75;;
34900;SDS011;21112;51.976;5.660;2024-01-30T10:06:47;14.85;;;4.72;;
34900;SDS011;21112;51.976;5.660;2024-01-30T10:09:14;11.27;;;4.45;;
34900;SDS011;21112;51.976;5.660;2024-01-30T10:11:42;11.82;;;4.30;;
34900;SDS011;21112;51.976;5.660;2024-01-30T10:14:09;14.60;;;5.22;;
34900;SDS011;21112;51.976;5.660;2024-01-30T10:16:36;15.10;;;6.47;;
34900;SDS011;21112;51.976;5.660;2024-01-30T10:19:03;17.25;;;5.32;;
34900;SDS011;21112;51.976;5.660;2024-01-30T10:21:30;9.48;;;3.67;;
34900;SDS011;21112;51.976;5.660;2024-01-30T10:24:00;11.07;;;4.22;;
34900;SDS011;21112;51.976;5.660;2024-01-30T10:26:29;11.60;;;4.40;;
34900;SDS011;21112;51.976;5.660;2024-01-30T10:29:01;15.10;;;5.03;;
34900;SDS011;21112;51.976;5.660;2024-01-30T10:31:29;12.75;;;5.28;;
34900;SDS011;21112;51.976;5.660;2024-01-30T10:34:00;12.85;;;4.70;;
34900;SDS011;21112;51.976;5.660;2024-01-30T10:36:28;12.20;;;4.38;;
34900;SDS011;21112;51.976;5.660;2024-01-30T10:38:55;15.18;;;4.15;;
34900;SDS011;21112;51.976;5.660;2024-01-30T10:41:31;9.88;;;4.15;;
34900;SDS011;21112;51.976;5.660;2024-01-30T10:44:05;10.52;;;4.38;;
34900;SDS011;21112;51.976;5.660;2024-01-30T10:46:35;10.05;;;4.00;;
34900;SDS011;21112;51.976;5.660;2024-01-30T10:49:04;11.93;;;4.45;;
34900;SDS011;21112;51.976;5.660;2024-01-30T10:51:32;11.10;;;4.05;;
34900;SDS011;21112;51.976;5.660;2024-01-30T10:56:28;8.68;;;3.63;;
34900;SDS011;21112;51.976;5.660;2024-01-30T10:58:56;9.05;;;3.97;;
34900;SDS011;21112;51.976;5.660;2024-01-30T11:01:23;12.55;;;4.38;;
34900;SDS011;21112;51.976;5.660;2024-01-30T11:03:51;9.70;;;4.90;;
34900;SDS011;21112;51.976;5.660;2024-01-30T11:06:19;17.80;;;5.70;;
34900;SDS011;21112;51.976;5.660;2024-01-30T11:08:59;17.25;;;7.32;;
34900;SDS011;21112;51.976;5.660;2024-01-30T11:11:28;13.07;;;4.82;;
34900;SDS011;21112;51.976;5.660;2024-01-30T11:13:55;12.15;;;3.88;;
34900;SDS011;21112;51.976;5.660;2024-01-30T11:16:30;9.93;;;3.90;;
34900;SDS011;21112;51.976;5.660;2024-01-30T11:19:00;16.38;;;3.90;;
34900;SDS011;21112;51.976;5.660;2024-01-30T11:21:27;10.07;;;4.35;;
34900;SDS011;21112;51.976;5.660;2024-01-30T11:23:55;10.18;;;4.47;;
34900;SDS011;21112;51.976;5.660;2024-01-30T11:26:23;14.15;;;4.57;;
34900;SDS011;21112;51.976;5.660;2024-01-30T11:28:58;16.55;;;6.85;;
34900;SDS011;21112;51.976;5.660;2024-01-30T11:31:29;20.02;;;7.00;;
34900;SDS011;21112;51.976;5.660;2024-01-30T11:33:56;13.27;;;5.75;;
34900;SDS011;21112;51.976;5.660;2024-01-30T11:36:25;11.73;;;5.20;;
34900;SDS011;21112;51.976;5.660;2024-01-30T11:38:52;11.02;;;4.93;;
34900;SDS011;21112;51.976;5.660;2024-01-30T11:41:20;14.10;;;5.13;;
34900;SDS011;21112;51.976;5.660;2024-01-30T11:43:55;14.70;;;6.20;;
34900;SDS011;21112;51.976;5.660;2024-01-30T11:46:25;14.65;;;4.80;;
34900;SDS011;21112;51.976;5.660;2024-01-30T11:48:52;9.20;;;4.32;;
34900;SDS011;21112;51.976;5.660;2024-01-30T11:53:51;11.07;;;4.47;;
34900;SDS011;21112;51.976;5.660;2024-01-30T11:56:22;9.38;;;4.43;;
34900;SDS011;21112;51.976;5.660;2024-01-30T11:58:50;11.63;;;4.65;;
34900;SDS011;21112;51.976;5.660;2024-01-30T12:01:18;15.27;;;4.82;;
34900;SDS011;21112;51.976;5.660;2024-01-30T12:03:50;7.35;;;3.53;;
34900;SDS011;21112;51.976;5.660;2024-01-30T12:06:18;10.68;;;3.45;;
34900;SDS011;21112;51.976;5.660;2024-01-30T12:08:55;9.48;;;3.40;;
34900;SDS011;21112;51.976;5.660;2024-01-30T12:11:25;6.63;;;2.92;;
34900;SDS011;21112;51.976;5.660;2024-01-30T12:13:52;4.97;;;2.10;;
34900;SDS011;21112;51.976;5.660;2024-01-30T12:16:21;7.72;;;2.55;;
34900;SDS011;21112;51.976;5.660;2024-01-30T12:18:48;8.18;;;2.60;;
34900;SDS011;21112;51.976;5.660;2024-01-30T12:21:16;7.20;;;2.15;;
34900;SDS011;21112;51.976;5.660;2024-01-30T12:23:43;7.15;;;2.25;;
34900;SDS011;21112;51.976;5.660;2024-01-30T12:26:17;7.43;;;2.85;;
34900;SDS011;21112;51.976;5.660;2024-01-30T12:28:47;7.10;;;2.35;;
34900;SDS011;21112;51.976;5.660;2024-01-30T12:31:15;11.27;;;2.15;;
34900;SDS011;21112;51.976;5.660;2024-01-30T12:33:46;4.60;;;1.52;;
34900;SDS011;21112;51.976;5.660;2024-01-30T12:36:17;3.90;;;1.33;;
34900;SDS011;21112;51.976;5.660;2024-01-30T12:38:44;11.25;;;1.95;;
34900;SDS011;21112;51.976;5.660;2024-01-30T12:41:12;4.07;;;1.10;;
34900;SDS011;21112;51.976;5.660;2024-01-30T12:43:43;2.50;;;1.10;;
34900;SDS011;21112;51.976;5.660;2024-01-30T12:46:10;3.90;;;1.10;;
34900;SDS011;21112;51.976;5.660;2024-01-30T12:48:37;2.45;;;1.08;;
34900;SDS011;21112;51.976;5.660;2024-01-30T12:51:05;8.65;;;1.42;;
34900;SDS011;21112;51.976;5.660;2024-01-30T12:53:32;10.50;;;2.58;;
34900;SDS011;21112;51.976;5.660;2024-01-30T12:55:59;2.58;;;0.98;;
34900;SDS011;21112;51.976;5.660;2024-01-30T12:58:26;3.40;;;1.00;;
34900;SDS011;21112;51.976;5.660;2024-01-30T13:00:53;6.97;;;1.33;;
34900;SDS011;21112;51.976;5.660;2024-01-30T13:03:21;3.50;;;1.17;;
34900;SDS011;21112;51.976;5.660;2024-01-30T13:05:48;0.73;;;0.60;;
34900;SDS011;21112;51.976;5.660;2024-01-30T13:08:19;2.15;;;0.88;;
34900;SDS011;21112;51.976;5.660;2024-01-30T13:10:48;2.90;;;0.80;;
34900;SDS011;21112;51.976;5.660;2024-01-30T13:13:15;5.40;;;0.88;;
34900;SDS011;21112;51.976;5.660;2024-01-30T13:15:42;6.28;;;1.00;;
34900;SDS011;21112;51.976;5.660;2024-01-30T13:18:11;6.53;;;1.67;;
34900;SDS011;21112;51.976;5.660;2024-01-30T13:20:38;10.40;;;1.95;;
34900;SDS011;21112;51.976;5.660;2024-01-30T13:23:07;8.55;;;1.80;;
34900;SDS011;21112;51.976;5.660;2024-01-30T13:25:44;5.43;;;1.77;;
34900;SDS011;21112;51.976;5.660;2024-01-30T13:28:10;6.07;;;2.05;;
34900;SDS011;21112;51.976;5.660;2024-01-30T13:30:37;6.15;;;2.00;;
34900;SDS011;21112;51.976;5.660;2024-01-30T13:33:07;8.20;;;1.77;;
34900;SDS011;21112;51.976;5.660;2024-01-30T13:35:34;6.28;;;1.88;;
34900;SDS011;21112;51.976;5.660;2024-01-30T13:38:00;12.55;;;3.42;;
34900;SDS011;21112;51.976;5.660;2024-01-30T13:40:29;5.65;;;2.17;;
34900;SDS011;21112;51.976;5.660;2024-01-30T13:42:57;6.13;;;2.30;;
34900;SDS011;21112;51.976;5.660;2024-01-30T13:45:25;6.63;;;2.35;;
34900;SDS011;21112;51.976;5.660;2024-01-30T13:47:51;10.75;;;2.38;;
34900;SDS011;21112;51.976;5.660;2024-01-30T13:50:21;10.10;;;2.30;;
34900;SDS011;21112;51.976;5.660;2024-01-30T13:52:54;8.00;;;3.00;;
34900;SDS011;21112;51.976;5.660;2024-01-30T13:55:23;7.93;;;2.25;;
34900;SDS011;21112;51.976;5.660;2024-01-30T13:57:51;7.22;;;2.20;;
34900;SDS011;21112;51.976;5.660;2024-01-30T14:00:19;6.78;;;2.47;;
34900;SDS011;21112;51.976;5.660;2024-01-30T14:02:50;7.40;;;2.22;;
34900;SDS011;21112;51.976;5.660;2024-01-30T14:05:19;3.67;;;1.63;;
34900;SDS011;21112;51.976;5.660;2024-01-30T14:07:47;3.60;;;1.53;;
34900;SDS011;21112;51.976;5.660;2024-01-30T14:10:15;6.85;;;1.95;;
34900;SDS011;21112;51.976;5.660;2024-01-30T14:12:49;2.35;;;1.25;;
34900;SDS011;21112;51.976;5.660;2024-01-30T14:15:18;3.72;;;1.40;;
34900;SDS011;21112;51.976;5.660;2024-01-30T14:17:47;6.45;;;1.17;;
34900;SDS011;21112;51.976;5.660;2024-01-30T14:20:15;6.25;;;1.45;;
34900;SDS011;21112;51.976;5.660;2024-01-30T14:22:45;4.22;;;1.38;;
34900;SDS011;21112;51.976;5.660;2024-01-30T14:25:12;3.58;;;1.65;;
34900;SDS011;21112;51.976;5.660;2024-01-30T14:27:39;8.55;;;1.90;;
34900;SDS011;21112;51.976;5.660;2024-01-30T14:30:06;3.75;;;1.40;;
34900;SDS011;21112;51.976;5.660;2024-01-30T14:32:38;2.25;;;1.27;;
34900;SDS011;21112;51.976;5.660;2024-01-30T14:35:11;6.57;;;1.95;;
34900;SDS011;21112;51.976;5.660;2024-01-30T14:37:38;4.25;;;1.73;;
34900;SDS011;21112;51.976;5.660;2024-01-30T14:40:06;7.60;;;2.30;;
34900;SDS011;21112;51.976;5.660;2024-01-30T14:42:35;5.90;;;2.00;;
34900;SDS011;21112;51.976;5.660;2024-01-30T14:45:06;11.13;;;3.25;;
34900;SDS011;21112;51.976;5.660;2024-01-30T14:47:38;6.93;;;2.50;;
34900;SDS011;21112;51.976;5.660;2024-01-30T14:50:06;7.40;;;2.47;;
34900;SDS011;21112;51.976;5.660;2024-01-30T14:52:34;6.28;;;2.70;;
34900;SDS011;21112;51.976;5.660;2024-01-30T14:55:01;10.63;;;2.65;;
34900;SDS011;21112;51.976;5.660;2024-01-30T14:57:29;7.07;;;1.60;;
34900;SDS011;21112;51.976;5.660;2024-01-30T14:59:56;3.95;;;1.92;;
34900;SDS011;21112;51.976;5.660;2024-01-30T15:02:28;7.30;;;1.95;;
34900;SDS011;21112;51.976;5.660;2024-01-30T15:05:00;3.65;;;1.38;;
34900;SDS011;21112;51.976;5.660;2024-01-30T15:07:45;4.82;;;1.77;;
34900;SDS011;21112;51.976;5.660;2024-01-30T15:10:17;4.35;;;1.25;;
34900;SDS011;21112;51.976;5.660;2024-01-30T15:12:44;5.55;;;1.13;;
34900;SDS011;21112;51.976;5.660;2024-01-30T15:15:10;3.15;;;1.20;;
34900;SDS011;21112;51.976;5.660;2024-01-30T15:17:38;4.40;;;1.42;;